Nearby METAR Reports

 

KHOT - Hot Springs, Arkansas, USA
Distance from station: W 8mi, 14km
Updated: 11/29/2020 9:53am
Rain, Mist, Overcast
Rain, Mist, Overcast
 Wind from N
Wind: N 5 mph , 7 km/h
Temperature: 43°F , 6°C
Wind Chill: 40°F , 4°C
Dew Point: 39°F , 4°C
Humidity: 87%
Barometer: 30.10 inHg , 1019.3 hPa
Summary: Rain, Mist
Clouds: Overcast
Visibility: 4 miles , 6 km
Cloud details: Few Clouds 3900 ft
Mostly cloudy 4800 ft
Overcast 5500 ft
2020/11/29 15:53 KHOT 291553Z AUTO 01004KT 4SM RA BR FEW039 BKN048 OVC055 06/04 A3010 RMK AO2 SLP192 P0016 T00560044 $
KMWT - Mount Ida, Arkansas, USA
Distance from station: W 36mi, 58km
Updated: 11/29/2020 9:53am
Overcast
Overcast
 Wind from NNW
Wind: NNW 6 mph , 9 km/h
Temperature: 43°F , 6°C
Wind Chill: 39°F , 4°C
Dew Point: 39°F , 4°C
Humidity: 87%
Barometer: 30.05 inHg , 1017.6 hPa
Clouds: Overcast
Visibility: 10 miles , 16 km
Cloud details: Mostly cloudy 600 ft
Mostly cloudy 1500 ft
Overcast 3000 ft
2020/11/29 15:53 KMWT 291553Z AUTO 33005KT 10SM BKN006 BKN015 OVC030 06/04 A3005 RMK AO2 RAE52 SLP183 P0008 T00560044
 
KLIT - Little Rock, Arkansas, USA
Distance from station: ENE 45mi, 73km
Updated: 11/29/2020 10:29am
Light rain, Mist, Overcast
Light rain, Mist, Overcast
 Wind from NW
Wind: NW 3 mph , 6 km/h
Temperature: 41°F , 5°C
Dew Point: 39°F , 4°C
Humidity: 93%
Barometer: 30.12 inHg , 1020 hPa
Summary: Light rain, Mist
Clouds: Overcast
Visibility: 4 miles , 6 km
Cloud details: Few Clouds 800 ft
Mostly cloudy 2800 ft
Overcast 8000 ft
2020/11/29 16:29 KLIT 291629Z 32003KT 4SM -RA BR FEW008 BKN028 OVC080 05/04 A3012 RMK AO2 P0008 T00500039 $
KLRF - Little Rock Afb, Arkansas, USA
Distance from station: NE 56mi, 89km
Updated: 11/29/2020 10:18am
Light rain, Mostly cloudy
Light rain, Mostly cloudy
 Wind from SW
Wind: SW 6 mph , 9 km/h
Temperature: 43°F , 6°C
Wind Chill: 39°F , 4°C
Dew Point: 39°F , 4°C
Humidity: 87%
Barometer: 30.12 inHg , 1020 hPa
Summary: Light rain
Clouds: Mostly cloudy
Visibility: 9 miles , 14 km
Cloud details: Few Clouds 300 ft
Partly cloudy 1200 ft
Partly cloudy 2000 ft
Partly cloudy 3600 ft
Mostly cloudy 4600 ft
2020/11/29 16:18 KLRF 291618Z AUTO 23005KT 9SM -RA FEW003 SCT012 SCT020 SCT036 BKN046 06/04 A3012 RMK AO2 RAB08 SLP204 $